Keyes, California
Current Conditions -  °F | °C
As of 4:53 PM on Friday 28 Nov 2014 (Local Time) from KMOD Reporting Station
Haze Haze  
Wind Chill: 59°   Ceiling: Unl
Heat Index: 59°   Visibility: 4mi
Dew Point: 47°   Wind: 7mph
Humidity: 64%   Direction: 310°NW
Pressure: 29.87"   Gusts: NA
Location:  37.56°N, 120.92°W
Report Text: KMOD 290053Z 31006KT 4SM HZ CLR 15/08 A2987 RMK AO2 SLP115 T01500083
Loading
Personal Weather Stations






























Interactive Weather Map New forecast layout! Learn more

10-Day Weather Forecast

Advertisements
Track Severe Weather on mobile